If you wish to contribute or participate in the discussions about articles you are invited to join SKYbrary as a registered user

 Actions

Banjul/Yundum International Airport

From SKYbrary Wiki

GBYD
Airport
ICAO: GBYD – IATA: BJL
Summary
Name Banjul/Yundum International Airport
Region Africa
Territory Gambia GM.gif
Location Banjul, Gambia
Serving Banjul
Elevation 28.956 m
95 ft
95 ft28.956 m
Coordinates 13° 20' 33.97" N, 16° 39' 5.65" W
Runways
Designator Length Width Surface ROPS
14/32 3600 m11,811.024 ft
45 m147.638 ft
ASP yes/yes


METAR
Observation GBYD 161400Z 29005KT CAVOK 34/18 Q1010
Station Banjul / Yundum
Date/Time 16 April 2019 14:00:00
Wind direction 290°
Wind speed 05 kts
Lowest cloud amount clouds and visibility OK
Temperature 34°C
Dew point 18°C
Humidity 38%
QNH 1010 hPa
Weather condition n/a

Banjul/Yundum International Airport

ICAO: GBYD IATA: BJL

Description

International airport serving the city of Banjul, The Gambia.

Climatology

Tropical Savanna climate (Köppen climate classification Aw) - monthly mean temperature above 18°C64.4 °F
291.15 K
524.07 °R
in every month of the year and a pronounced dry season.

Maps

Terrain

Loading map...

Airport Layout

Loading map...


Accidents & Serious Incidents at or in vicinity of GBYD

None on SKYbrary